Time,TemperatureF,DewpointF,PressureIn,WindDirection,WindDirectionDegrees,WindSpeedMPH,WindSpeedGustMPH,Humidity,HourlyPrecipIn,Conditions,Clouds,dailyrainin,SoftwareType,DateUTC
2013-02-19 00:00:00,54.6,48.6,30.21,SE,127,3.0,6.0,80,0.00,,SKC,0.00,VWS V14.01,2013-02-19 05:00:00,
2013-02-19 00:05:00,54.6,48.6,30.21,SE,126,2.0,7.0,80,0.00,,SKC,0.00,VWS V14.01,2013-02-19 05:05:00,
2013-02-19 00:10:00,54.5,48.5,30.20,SE,130,4.0,5.0,80,0.00,,SKC,0.00,VWS V14.01,2013-02-19 05:10:00,
2013-02-19 00:15:00,54.4,48.4,30.20,SE,128,4.0,5.0,80,0.00,,SKC,0.00,VWS V14.01,2013-02-19 05:15:00,
2013-02-19 00:20:00,54.3,48.6,30.20,SE,126,2.0,5.0,81,0.00,,SKC,0.00,VWS V14.01,2013-02-19 05:20:00,
2013-02-19 00:25:00,54.4,48.7,30.21,SE,126,2.0,4.0,81,0.00,,SKC,0.00,VWS V14.01,2013-02-19 05:25:00,
2013-02-19 00:26:00,54.4,48.7,30.21,SE,126,1.0,2.0,81,0.00,,SKC,0.00,VWS V14.01,2013-02-19 05:26:00,
2013-02-19 00:31:00,54.3,48.6,30.21,SE,126,1.0,2.0,81,0.00,,SKC,0.00,VWS V14.01,2013-02-19 05:31:00,
2013-02-19 00:36:00,54.3,48.9,30.22,SE,126,0.0,0.0,82,0.00,,SKC,0.00,VWS V14.01,2013-02-19 05:36:00,
2013-02-19 00:41:00,54.2,48.8,30.21,SE,126,1.0,1.0,82,0.00,,SKC,0.00,VWS V14.01,2013-02-19 05:41:00,
2013-02-19 00:46:00,54.3,48.9,30.21,SE,126,1.0,2.0,82,0.00,,SKC,0.00,VWS V14.01,2013-02-19 05:46:00,
2013-02-19 00:50:00,54.2,48.8,30.21,SE,126,0.0,1.0,82,0.00,,SKC,0.00,VWS V14.01,2013-02-19 05:50:00,
2013-02-19 00:56:00,54.1,48.7,30.21,SE,126,0.0,1.0,82,0.00,,SKC,0.00,VWS V14.01,2013-02-19 05:56:00,
2013-02-19 01:00:00,54.1,49.1,30.21,SE,126,1.0,1.0,83,0.00,,SKC,0.00,VWS V14.01,2013-02-19 06:00:00,
2013-02-19 01:06:00,54.1,49.1,30.21,SE,126,1.0,2.0,83,0.00,,SKC,0.00,VWS V14.01,2013-02-19 06:06:00,
2013-02-19 01:10:00,53.9,48.9,30.21,SE,126,1.0,2.0,83,0.00,,SKC,0.00,VWS V14.01,2013-02-19 06:10:00,
2013-02-19 01:16:00,53.7,48.7,30.21,SE,126,1.0,1.0,83,0.00,,SKC,0.00,VWS V14.01,2013-02-19 06:16:00,
2013-02-19 01:20:00,53.6,48.9,30.21,SE,126,2.0,2.0,84,0.00,,SKC,0.00,VWS V14.01,2013-02-19 06:20:00,
2013-02-19 01:26:00,53.6,48.9,30.21,SE,126,1.0,2.0,84,0.00,,SKC,0.00,VWS V14.01,2013-02-19 06:26:00,
2013-02-19 01:31:00,53.6,48.9,30.21,SE,126,1.0,2.0,84,0.00,,SKC,0.00,VWS V14.01,2013-02-19 06:31:00,
2013-02-19 01:36:00,53.7,49.0,30.21,SE,126,1.0,2.0,84,0.00,,SKC,0.00,VWS V14.01,2013-02-19 06:36:00,
2013-02-19 01:41:00,53.9,49.2,30.22,SE,126,1.0,1.0,84,0.00,,SKC,0.00,VWS V14.01,2013-02-19 06:41:00,
2013-02-19 01:46:00,54.0,49.3,30.22,SE,126,0.0,0.0,84,0.00,,SKC,0.00,VWS V14.01,2013-02-19 06:46:00,
2013-02-19 01:51:00,54.0,49.3,30.21,SE,126,1.0,1.0,84,0.00,,SKC,0.00,VWS V14.01,2013-02-19 06:51:00,
2013-02-19 01:56:00,53.9,49.2,30.21,SE,126,0.0,0.0,84,0.00,,SKC,0.00,VWS V14.01,2013-02-19 06:56:00,
2013-02-19 02:01:00,53.7,49.0,30.21,SE,126,0.0,0.0,84,0.00,,SKC,0.00,VWS V14.01,2013-02-19 07:01:00,
2013-02-19 02:06:00,53.4,48.7,30.21,SE,126,0.0,0.0,84,0.00,,SKC,0.00,VWS V14.01,2013-02-19 07:06:00,
2013-02-19 02:11:00,53.0,48.3,30.20,SE,126,0.0,0.0,84,0.00,,SKC,0.00,VWS V14.01,2013-02-19 07:11:00,
2013-02-19 02:16:00,52.7,48.3,30.20,SE,126,0.0,1.0,85,0.00,,SKC,0.00,VWS V14.01,2013-02-19 07:16:00,
2013-02-19 02:21:00,52.5,48.4,30.20,SE,126,1.0,1.0,86,0.00,,SKC,0.00,VWS V14.01,2013-02-19 07:21:00,
2013-02-19 02:26:00,52.5,48.4,30.20,SE,126,2.0,2.0,86,0.00,,SKC,0.00,VWS V14.01,2013-02-19 07:26:00,
2013-02-19 02:31:00,52.3,48.2,30.20,SE,126,2.0,3.0,86,0.00,,SKC,0.00,VWS V14.01,2013-02-19 07:31:00,
2013-02-19 02:36:00,52.1,48.4,30.19,SE,126,0.0,2.0,87,0.00,,SKC,0.00,VWS V14.01,2013-02-19 07:36:00,
2013-02-19 02:41:00,51.9,48.2,30.19,SE,126,0.0,2.0,87,0.00,,SKC,0.00,VWS V14.01,2013-02-19 07:41:00,
2013-02-19 02:46:00,51.7,48.3,30.20,SE,126,0.0,0.0,88,0.00,,SKC,0.00,VWS V14.01,2013-02-19 07:46:00,
2013-02-19 02:51:00,51.5,48.1,30.20,SE,126,0.0,0.0,88,0.00,,SKC,0.00,VWS V14.01,2013-02-19 07:51:00,
2013-02-19 02:56:00,51.3,48.2,30.20,SE,126,0.0,0.0,89,0.00,,SKC,0.00,VWS V14.01,2013-02-19 07:56:00,
2013-02-19 03:01:00,51.2,48.1,30.19,SE,126,0.0,0.0,89,0.00,,SKC,0.00,VWS V14.01,2013-02-19 08:01:00,
2013-02-19 03:06:00,51.1,48.0,30.19,SE,126,0.0,1.0,89,0.00,,SKC,0.00,VWS V14.01,2013-02-19 08:06:00,
2013-02-19 03:11:00,51.3,48.2,30.19,SE,126,2.0,2.0,89,0.00,,SKC,0.00,VWS V14.01,2013-02-19 08:11:00,
2013-02-19 03:16:00,51.5,48.4,30.19,SE,126,0.0,1.0,89,0.00,,SKC,0.00,VWS V14.01,2013-02-19 08:16:00,
2013-02-19 03:21:00,51.5,48.4,30.18,SE,126,0.0,0.0,89,0.00,,SKC,0.00,VWS V14.01,2013-02-19 08:21:00,
2013-02-19 03:26:00,51.6,48.5,30.18,SE,126,0.0,0.0,89,0.00,,SKC,0.00,VWS V14.01,2013-02-19 08:26:00,
2013-02-19 03:31:00,51.5,48.4,30.18,SE,126,0.0,0.0,89,0.00,,SKC,0.00,VWS V14.01,2013-02-19 08:31:00,
2013-02-19 03:36:00,51.4,48.3,30.18,SE,126,0.0,1.0,89,0.00,,SKC,0.00,VWS V14.01,2013-02-19 08:36:00,
2013-02-19 03:41:00,51.4,48.3,30.18,SE,126,0.0,1.0,89,0.00,,SKC,0.00,VWS V14.01,2013-02-19 08:41:00,
2013-02-19 03:46:00,51.4,48.3,30.18,SE,126,0.0,0.0,89,0.00,,SKC,0.00,VWS V14.01,2013-02-19 08:46:00,
2013-02-19 03:51:00,51.3,48.2,30.18,SE,126,0.0,1.0,89,0.00,,SKC,0.00,VWS V14.01,2013-02-19 08:51:00,
2013-02-19 03:56:00,51.3,48.2,30.17,SE,126,1.0,2.0,89,0.00,,SKC,0.00,VWS V14.01,2013-02-19 08:56:00,
2013-02-19 04:01:00,51.4,48.3,30.17,SE,126,1.0,2.0,89,0.00,,SKC,0.00,VWS V14.01,2013-02-19 09:01:00,
2013-02-19 04:06:00,51.9,48.8,30.17,SE,126,1.0,2.0,89,0.00,,SKC,0.00,VWS V14.01,2013-02-19 09:06:00,
2013-02-19 04:11:00,52.2,48.8,30.17,SE,126,1.0,2.0,88,0.00,,SKC,0.00,VWS V14.01,2013-02-19 09:11:00,
2013-02-19 04:16:00,52.4,48.7,30.17,SE,126,0.0,1.0,87,0.00,,SKC,0.00,VWS V14.01,2013-02-19 09:16:00,
2013-02-19 04:21:00,52.6,49.2,30.17,SE,126,0.0,1.0,88,0.00,,SKC,0.00,VWS V14.01,2013-02-19 09:21:00,
2013-02-19 04:26:00,52.8,49.3,30.16,SE,126,2.0,2.0,88,0.00,,SKC,0.00,VWS V14.01,2013-02-19 09:26:00,
2013-02-19 04:31:00,53.2,49.7,30.17,SE,126,1.0,2.0,88,0.00,,SKC,0.00,VWS V14.01,2013-02-19 09:31:00,
2013-02-19 04:35:00,53.4,49.6,30.17,SE,126,2.0,3.0,87,0.00,,SKC,0.00,VWS V14.01,2013-02-19 09:35:00,
2013-02-19 04:40:00,53.6,49.5,30.16,SE,126,1.0,2.0,86,0.00,,SKC,0.00,VWS V14.01,2013-02-19 09:40:00,
2013-02-19 04:45:00,53.8,49.4,30.16,SE,126,1.0,2.0,85,0.00,,SKC,0.00,VWS V14.01,2013-02-19 09:45:00,
2013-02-19 04:50:00,54.0,49.3,30.16,SE,126,2.0,2.0,84,0.00,,SKC,0.00,VWS V14.01,2013-02-19 09:50:00,
2013-02-19 04:55:00,54.3,49.3,30.16,SE,126,2.0,2.0,83,0.00,,SKC,0.00,VWS V14.01,2013-02-19 09:55:00,
2013-02-19 05:00:00,54.6,49.5,30.16,SE,126,2.0,2.0,83,0.00,,SKC,0.00,VWS V14.01,2013-02-19 10:00:00,
2013-02-19 05:05:00,54.6,49.9,30.17,SE,126,2.0,2.0,84,0.00,,SKC,0.00,VWS V14.01,2013-02-19 10:05:00,
2013-02-19 05:11:00,54.5,49.8,30.17,SE,126,0.0,1.0,84,0.00,,SKC,0.00,VWS V14.01,2013-02-19 10:11:00,
2013-02-19 05:15:00,54.4,49.7,30.17,SE,126,1.0,2.0,84,0.00,,SKC,0.00,VWS V14.01,2013-02-19 10:15:00,
2013-02-19 05:21:00,54.4,49.7,30.17,SE,126,0.0,0.0,84,0.00,,SKC,0.00,VWS V14.01,2013-02-19 10:21:00,
2013-02-19 05:25:00,54.5,50.1,30.17,SE,126,0.0,0.0,85,0.00,,SKC,0.00,VWS V14.01,2013-02-19 10:25:00,
2013-02-19 05:30:00,54.4,50.0,30.17,SE,126,0.0,0.0,85,0.00,,SKC,0.00,VWS V14.01,2013-02-19 10:30:00,
2013-02-19 05:35:00,54.2,49.8,30.17,SE,126,0.0,0.0,85,0.00,,SKC,0.00,VWS V14.01,2013-02-19 10:35:00,
2013-02-19 05:40:00,54.0,49.6,30.16,SE,126,3.0,3.0,85,0.00,,SKC,0.00,VWS V14.01,2013-02-19 10:40:00,
2013-02-19 05:45:00,54.0,49.6,30.17,SE,126,3.0,4.0,85,0.00,,SKC,0.00,VWS V14.01,2013-02-19 10:45:00,
2013-02-19 05:50:00,54.1,49.7,30.17,SE,126,2.0,3.0,85,0.00,,SKC,0.00,VWS V14.01,2013-02-19 10:50:00,
2013-02-19 05:55:00,54.1,50.0,30.16,SE,126,4.0,4.0,86,0.00,,SKC,0.00,VWS V14.01,2013-02-19 10:55:00,
2013-02-19 06:00:00,53.9,50.1,30.16,SE,126,2.0,3.0,87,0.00,,SKC,0.00,VWS V14.01,2013-02-19 11:00:00,
2013-02-19 06:05:00,53.9,50.1,30.16,SE,126,2.0,4.0,87,0.00,,SKC,0.00,VWS V14.01,2013-02-19 11:05:00,
2013-02-19 06:10:00,53.7,50.2,30.16,SE,126,2.0,3.0,88,0.00,,SKC,0.00,VWS V14.01,2013-02-19 11:10:00,
2013-02-19 06:15:00,53.4,50.2,30.16,SE,126,3.0,3.0,89,0.00,,SKC,0.00,VWS V14.01,2013-02-19 11:15:00,
2013-02-19 06:20:00,53.2,50.0,30.16,SE,126,2.0,2.0,89,0.00,,SKC,0.00,VWS V14.01,2013-02-19 11:20:00,
2013-02-19 06:25:00,53.0,50.2,30.16,SE,126,2.0,2.0,90,0.00,,SKC,0.00,VWS V14.01,2013-02-19 11:25:00,
2013-02-19 06:30:00,52.8,50.0,30.16,SE,126,2.0,2.0,90,0.00,,SKC,0.00,VWS V14.01,2013-02-19 11:30:00,
2013-02-19 06:35:00,52.8,50.0,30.16,SE,126,0.0,0.0,90,0.00,,SKC,0.00,VWS V14.01,2013-02-19 11:35:00,
2013-02-19 06:40:00,52.7,49.8,30.17,SE,126,1.0,1.0,90,0.00,,SKC,0.00,VWS V14.01,2013-02-19 11:40:00,
2013-02-19 06:45:00,52.7,49.8,30.16,SE,126,2.0,2.0,90,0.00,,SKC,0.00,VWS V14.01,2013-02-19 11:45:00,
2013-02-19 06:50:00,52.6,49.8,30.16,SE,126,1.0,2.0,90,0.00,,SKC,0.00,VWS V14.01,2013-02-19 11:50:00,
2013-02-19 06:55:00,52.6,49.8,30.16,SE,126,1.0,2.0,90,0.00,,SKC,0.00,VWS V14.01,2013-02-19 11:55:00,
2013-02-19 07:00:00,52.6,49.8,30.16,SE,126,3.0,3.0,90,0.00,,SKC,0.00,VWS V14.01,2013-02-19 12:00:00,
2013-02-19 07:05:00,52.6,49.5,30.16,SE,126,1.0,2.0,89,0.00,,SKC,0.00,VWS V14.01,2013-02-19 12:05:00,
2013-02-19 07:10:00,52.7,49.5,30.16,SE,126,3.0,3.0,89,0.00,,SKC,0.00,VWS V14.01,2013-02-19 12:10:00,
2013-02-19 07:15:00,52.9,49.8,30.16,SE,126,2.0,2.0,89,0.00,,SKC,0.00,VWS V14.01,2013-02-19 12:15:00,
2013-02-19 07:20:00,53.2,50.0,30.16,SE,126,2.0,2.0,89,0.00,,SKC,0.00,VWS V14.01,2013-02-19 12:20:00,
2013-02-19 07:25:00,53.5,50.3,30.17,SE,126,3.0,3.0,89,0.00,,SKC,0.00,VWS V14.01,2013-02-19 12:25:00,
2013-02-19 07:30:00,53.8,50.3,30.16,SE,126,4.0,5.0,88,0.00,,SKC,0.00,VWS V14.01,2013-02-19 12:30:00,
2013-02-19 07:35:00,54.2,50.4,30.17,SE,129,5.0,5.0,87,0.00,,SKC,0.00,VWS V14.01,2013-02-19 12:35:00,
2013-02-19 07:40:00,54.6,50.8,30.17,SE,133,2.0,5.0,87,0.00,,SKC,0.00,VWS V14.01,2013-02-19 12:40:00,
2013-02-19 07:45:00,54.9,50.8,30.17,SE,132,4.0,4.0,86,0.00,,SKC,0.00,VWS V14.01,2013-02-19 12:45:00,
2013-02-19 07:50:00,55.3,50.9,30.17,SE,146,2.0,4.0,85,0.00,,SKC,0.00,VWS V14.01,2013-02-19 12:50:00,
2013-02-19 07:55:00,55.7,51.3,30.17,SE,145,3.0,5.0,85,0.00,,SKC,0.00,VWS V14.01,2013-02-19 12:55:00,
2013-02-19 08:00:00,56.2,51.4,30.17,SSE,153,2.0,3.0,84,0.00,,SKC,0.00,VWS V14.01,2013-02-19 13:00:00,
2013-02-19 08:05:00,56.7,51.6,30.17,SSE,164,3.0,3.0,83,0.00,,SKC,0.00,VWS V14.01,2013-02-19 13:05:00,
2013-02-19 08:10:00,57.1,51.7,30.17,SSE,161,1.0,2.0,82,0.00,,SKC,0.00,VWS V14.01,2013-02-19 13:10:00,
2013-02-19 08:15:00,57.4,52.0,30.17,SSE,157,2.0,4.0,82,0.00,,SKC,0.00,VWS V14.01,2013-02-19 13:15:00,
2013-02-19 08:20:00,57.7,52.2,30.17,SE,144,5.0,5.0,82,0.00,,SKC,0.00,VWS V14.01,2013-02-19 13:20:00,
2013-02-19 08:25:00,58.0,52.5,30.17,SSE,167,3.0,4.0,82,0.00,,SKC,0.00,VWS V14.01,2013-02-19 13:25:00,
2013-02-19 08:30:00,58.3,52.5,30.18,SE,144,3.0,6.0,81,0.00,,SKC,0.00,VWS V14.01,2013-02-19 13:30:00,
2013-02-19 08:35:00,58.6,52.5,30.18,SSE,157,3.0,4.0,80,0.00,,SKC,0.00,VWS V14.01,2013-02-19 13:35:00,
2013-02-19 08:40:00,59.0,52.8,30.18,South,169,4.0,6.0,80,0.00,,SKC,0.00,VWS V14.01,2013-02-19 13:40:00,
2013-02-19 08:45:00,59.4,53.2,30.18,SSE,159,4.0,6.0,80,0.00,,SKC,0.00,VWS V14.01,2013-02-19 13:45:00,
2013-02-19 08:50:00,60.0,53.5,30.19,SSE,163,2.0,2.0,79,0.00,,SKC,0.00,VWS V14.01,2013-02-19 13:50:00,
2013-02-19 08:55:00,60.6,54.1,30.19,SSE,154,3.0,3.0,79,0.00,,SKC,0.00,VWS V14.01,2013-02-19 13:55:00,
2013-02-19 09:00:00,61.3,54.7,30.19,SSE,155,3.0,3.0,79,0.00,,SKC,0.00,VWS V14.01,2013-02-19 14:00:00,
2013-02-19 09:05:00,62.1,54.8,30.19,SE,145,4.0,4.0,77,0.00,,SKC,0.00,VWS V14.01,2013-02-19 14:05:00,
2013-02-19 09:10:00,62.6,54.9,30.19,SSE,151,4.0,4.0,76,0.00,,SKC,0.00,VWS V14.01,2013-02-19 14:10:00,
2013-02-19 09:15:00,63.2,55.5,30.18,SSE,159,2.0,2.0,76,0.00,,SKC,0.00,VWS V14.01,2013-02-19 14:15:00,
2013-02-19 09:20:00,63.8,55.7,30.18,South,171,5.0,5.0,75,0.00,,SKC,0.00,VWS V14.01,2013-02-19 14:20:00,
2013-02-19 09:25:00,64.4,56.3,30.18,SE,136,4.0,4.0,75,0.00,,SKC,0.00,VWS V14.01,2013-02-19 14:25:00,
2013-02-19 09:30:00,65.0,56.5,30.18,SSE,167,3.0,9.0,74,0.00,,SKC,0.00,VWS V14.01,2013-02-19 14:30:00,
2013-02-19 09:35:00,65.6,56.0,30.18,South,189,9.0,16.0,71,0.00,,SKC,0.00,VWS V14.01,2013-02-19 14:35:00,
2013-02-19 09:40:00,65.8,55.8,30.18,SE,145,10.0,14.0,70,0.00,,SKC,0.00,VWS V14.01,2013-02-19 14:40:00,
2013-02-19 09:45:00,66.1,56.0,30.18,South,175,6.0,13.0,70,0.00,,SKC,0.00,VWS V14.01,2013-02-19 14:45:00,
2013-02-19 09:50:00,66.5,56.0,30.18,SSE,157,4.0,14.0,69,0.00,,SKC,0.00,VWS V14.01,2013-02-19 14:50:00,
2013-02-19 09:55:00,66.8,55.9,30.18,SSE,168,11.0,12.0,68,0.00,,SKC,0.00,VWS V14.01,2013-02-19 14:55:00,
2013-02-19 10:00:00,67.5,56.6,30.18,South,174,11.0,13.0,68,0.00,,SKC,0.00,VWS V14.01,2013-02-19 15:00:00,
2013-02-19 10:05:00,67.8,56.0,30.18,SSE,163,4.0,12.0,66,0.00,,SKC,0.00,VWS V14.01,2013-02-19 15:05:00,
2013-02-19 10:10:00,68.1,55.9,30.18,SE,146,5.0,11.0,65,0.00,,SKC,0.00,VWS V14.01,2013-02-19 15:10:00,
2013-02-19 10:15:00,68.3,56.1,30.19,South,188,9.0,12.0,65,0.00,,SKC,0.00,VWS V14.01,2013-02-19 15:15:00,
2013-02-19 10:20:00,68.5,55.9,30.19,South,176,4.0,13.0,64,0.00,,SKC,0.00,VWS V14.01,2013-02-19 15:20:00,
2013-02-19 10:25:00,69.0,55.5,30.19,SSW,204,7.0,12.0,62,0.00,,SKC,0.00,VWS V14.01,2013-02-19 15:25:00,
2013-02-19 10:30:00,69.2,55.6,30.19,SSE,163,7.0,14.0,62,0.00,,SKC,0.00,VWS V14.01,2013-02-19 15:30:00,
2013-02-19 10:35:00,69.6,55.6,30.19,SSW,200,5.0,10.0,61,0.00,,SKC,0.00,VWS V14.01,2013-02-19 15:35:00,
2013-02-19 10:40:00,69.3,54.4,30.19,SW,222,10.0,15.0,59,0.00,,SKC,0.00,VWS V14.01,2013-02-19 15:40:00,
2013-02-19 10:45:00,69.3,54.4,30.18,SW,220,7.0,13.0,59,0.00,,SKC,0.00,VWS V14.01,2013-02-19 15:45:00,
2013-02-19 10:50:00,70.0,55.0,30.18,South,169,9.0,13.0,59,0.00,,SKC,0.00,VWS V14.01,2013-02-19 15:50:00,
2013-02-19 10:55:00,69.9,54.9,30.18,SSW,195,5.0,17.0,59,0.00,,SKC,0.00,VWS V14.01,2013-02-19 15:55:00,
2013-02-19 11:00:00,70.1,54.7,30.18,SSW,212,11.0,15.0,58,0.00,,SKC,0.00,VWS V14.01,2013-02-19 16:00:00,
2013-02-19 11:05:00,70.4,54.9,30.18,SSW,199,11.0,16.0,58,0.00,,SKC,0.00,VWS V14.01,2013-02-19 16:05:00,
2013-02-19 11:10:00,70.7,54.2,30.18,SW,230,8.0,15.0,56,0.00,,SKC,0.00,VWS V14.01,2013-02-19 16:10:00,
2013-02-19 11:15:00,70.8,54.3,30.18,SSW,204,7.0,15.0,56,0.00,,SKC,0.00,VWS V14.01,2013-02-19 16:15:00,
2013-02-19 11:20:00,71.2,54.2,30.17,SSW,200,13.0,21.0,55,0.00,,SKC,0.00,VWS V14.01,2013-02-19 16:20:00,
2013-02-19 11:25:00,70.8,54.3,30.18,SW,233,9.0,17.0,56,0.00,,SKC,0.00,VWS V14.01,2013-02-19 16:25:00,
2013-02-19 11:30:00,71.1,54.1,30.18,SW,215,10.0,18.0,55,0.00,,SKC,0.00,VWS V14.01,2013-02-19 16:30:00,
2013-02-19 11:35:00,71.0,54.5,30.18,SSW,210,10.0,17.0,56,0.00,,SKC,0.00,VWS V14.01,2013-02-19 16:35:00,
2013-02-19 11:40:00,71.2,54.7,30.17,SSW,207,15.0,20.0,56,0.00,,SKC,0.00,VWS V14.01,2013-02-19 16:40:00,
2013-02-19 11:45:00,71.2,54.7,30.17,SSW,207,16.0,20.0,56,0.00,,SKC,0.00,VWS V14.01,2013-02-19 16:45:00,
2013-02-19 11:50:00,71.7,54.2,30.17,SW,229,10.0,18.0,54,0.00,,SKC,0.00,VWS V14.01,2013-02-19 16:50:00,
2013-02-19 11:55:00,71.8,54.3,30.17,WSW,240,12.0,18.0,54,0.00,,SKC,0.00,VWS V14.01,2013-02-19 16:55:00,
2013-02-19 12:00:00,72.3,54.7,30.17,SW,233,8.0,16.0,54,0.00,,SKC,0.00,VWS V14.01,2013-02-19 17:00:00,
2013-02-19 12:05:00,72.2,54.1,30.17,SSW,209,9.0,16.0,53,0.00,,SKC,0.00,VWS V14.01,2013-02-19 17:05:00,
2013-02-19 12:10:00,72.1,54.0,30.16,South,177,12.0,19.0,53,0.00,,SKC,0.00,VWS V14.01,2013-02-19 17:10:00,
2013-02-19 12:15:00,72.1,54.6,30.16,SW,214,14.0,20.0,54,0.00,,SKC,0.00,VWS V14.01,2013-02-19 17:15:00,
2013-02-19 12:20:00,72.1,54.0,30.16,SW,225,10.0,15.0,53,0.00,,SKC,0.00,VWS V14.01,2013-02-19 17:20:00,
2013-02-19 12:25:00,72.3,54.7,30.16,SSW,213,7.0,18.0,54,0.00,,SKC,0.00,VWS V14.01,2013-02-19 17:25:00,
2013-02-19 12:30:00,72.4,54.8,30.15,South,169,8.0,18.0,54,0.00,,SKC,0.00,VWS V14.01,2013-02-19 17:30:00,
2013-02-19 12:35:00,72.9,54.8,30.15,SW,236,9.0,16.0,53,0.00,,SKC,0.00,VWS V14.01,2013-02-19 17:35:00,
2013-02-19 12:40:00,72.5,54.4,30.15,SSW,192,7.0,16.0,53,0.00,,SKC,0.00,VWS V14.01,2013-02-19 17:40:00,
2013-02-19 12:45:00,72.6,54.5,30.14,SW,223,13.0,15.0,53,0.00,,SKC,0.00,VWS V14.01,2013-02-19 17:45:00,
2013-02-19 12:50:00,73.0,54.9,30.14,SSW,194,7.0,16.0,53,0.00,,SKC,0.00,VWS V14.01,2013-02-19 17:50:00,
2013-02-19 12:55:00,73.4,54.7,30.14,South,183,13.0,18.0,52,0.00,,SKC,0.00,VWS V14.01,2013-02-19 17:55:00,
2013-02-19 13:00:00,73.6,54.4,30.13,SSW,192,15.0,19.0,51,0.00,,SKC,0.00,VWS V14.01,2013-02-19 18:00:00,
2013-02-19 13:05:00,73.8,54.6,30.13,WSW,257,10.0,17.0,51,0.00,,SKC,0.00,VWS V14.01,2013-02-19 18:05:00,
2013-02-19 13:10:00,74.3,55.0,30.12,SW,224,10.0,16.0,51,0.00,,SKC,0.00,VWS V14.01,2013-02-19 18:10:00,
2013-02-19 13:15:00,74.6,54.8,30.12,SSW,209,12.0,14.0,50,0.00,,SKC,0.00,VWS V14.01,2013-02-19 18:15:00,
2013-02-19 13:20:00,73.8,54.6,30.12,SSW,208,9.0,12.0,51,0.00,,SKC,0.00,VWS V14.01,2013-02-19 18:20:00,
2013-02-19 13:25:00,74.0,54.7,30.11,SW,234,8.0,16.0,51,0.00,,SKC,0.00,VWS V14.01,2013-02-19 18:25:00,
2013-02-19 13:30:00,74.2,54.9,30.11,WSW,246,6.0,13.0,51,0.00,,SKC,0.00,VWS V14.01,2013-02-19 18:30:00,
2013-02-19 13:35:00,74.4,55.1,30.11,SW,220,4.0,13.0,51,0.00,,SKC,0.00,VWS V14.01,2013-02-19 18:35:00,
2013-02-19 13:40:00,74.6,54.8,30.11,SSW,209,7.0,15.0,50,0.00,,SKC,0.00,VWS V14.01,2013-02-19 18:40:00,
2013-02-19 13:45:00,74.6,54.8,30.11,SW,229,8.0,16.0,50,0.00,,SKC,0.00,VWS V14.01,2013-02-19 18:45:00,
2013-02-19 13:50:00,75.1,54.7,30.10,WSW,241,12.0,19.0,49,0.00,,SKC,0.00,VWS V14.01,2013-02-19 18:50:00,
2013-02-19 13:55:00,74.8,54.4,30.10,WSW,246,17.0,17.0,49,0.00,,SKC,0.00,VWS V14.01,2013-02-19 18:55:00,
2013-02-19 14:00:00,74.8,54.4,30.10,SW,234,11.0,17.0,49,0.00,,SKC,0.00,VWS V14.01,2013-02-19 19:00:00,
2013-02-19 14:05:00,74.5,54.7,30.10,SW,219,8.0,12.0,50,0.00,,SKC,0.00,VWS V14.01,2013-02-19 19:05:00,
2013-02-19 14:10:00,74.7,54.3,30.10,SW,221,11.0,16.0,49,0.00,,SKC,0.00,VWS V14.01,2013-02-19 19:10:00,
2013-02-19 14:15:00,74.3,54.5,30.09,WSW,248,8.0,14.0,50,0.00,,SKC,0.00,VWS V14.01,2013-02-19 19:15:00,
2013-02-19 14:20:00,75.0,55.1,30.09,SW,229,9.0,12.0,50,0.00,,SKC,0.00,VWS V14.01,2013-02-19 19:20:00,
2013-02-19 14:25:00,75.2,54.2,30.09,SW,232,7.0,15.0,48,0.00,,SKC,0.00,VWS V14.01,2013-02-19 19:25:00,
2013-02-19 14:30:00,74.9,54.5,30.09,SW,233,7.0,14.0,49,0.00,,SKC,0.00,VWS V14.01,2013-02-19 19:30:00,
2013-02-19 14:35:00,75.6,55.1,30.09,SW,221,12.0,16.0,49,0.00,,SKC,0.00,VWS V14.01,2013-02-19 19:35:00,
2013-02-19 14:40:00,75.8,54.7,30.09,WSW,237,12.0,18.0,48,0.00,,SKC,0.00,VWS V14.01,2013-02-19 19:40:00,
2013-02-19 14:45:00,75.4,54.4,30.08,WSW,240,8.0,16.0,48,0.00,,SKC,0.00,VWS V14.01,2013-02-19 19:45:00,
2013-02-19 14:50:00,76.0,54.9,30.08,West,281,9.0,13.0,48,0.00,,SKC,0.00,VWS V14.01,2013-02-19 19:50:00,
2013-02-19 14:55:00,75.5,54.5,30.08,West,266,8.0,11.0,48,0.00,,SKC,0.00,VWS V14.01,2013-02-19 19:55:00,
2013-02-19 15:00:00,75.5,54.5,30.08,WSW,246,12.0,15.0,48,0.00,,SKC,0.00,VWS V14.01,2013-02-19 20:00:00,
2013-02-19 15:05:00,75.6,55.1,30.08,SW,221,9.0,15.0,49,0.00,,SKC,0.00,VWS V14.01,2013-02-19 20:05:00,
2013-02-19 15:10:00,75.9,54.2,30.08,SW,221,6.0,15.0,47,0.00,,SKC,0.00,VWS V14.01,2013-02-19 20:10:00,
2013-02-19 15:15:00,76.2,54.5,30.07,SW,236,14.0,17.0,47,0.00,,SKC,0.00,VWS V14.01,2013-02-19 20:15:00,
2013-02-19 15:20:00,75.8,54.7,30.07,WSW,251,9.0,19.0,48,0.00,,SKC,0.00,VWS V14.01,2013-02-19 20:20:00,
2013-02-19 15:25:00,75.5,54.5,30.07,WSW,248,10.0,12.0,48,0.00,,SKC,0.00,VWS V14.01,2013-02-19 20:25:00,
2013-02-19 15:30:00,75.4,55.5,30.08,WSW,244,8.0,11.0,50,0.00,,SKC,0.00,VWS V14.01,2013-02-19 20:30:00,
2013-02-19 15:35:00,75.8,55.3,30.07,WSW,252,7.0,12.0,49,0.00,,SKC,0.00,VWS V14.01,2013-02-19 20:35:00,
2013-02-19 15:40:00,75.7,55.2,30.07,WSW,245,7.0,14.0,49,0.00,,SKC,0.00,VWS V14.01,2013-02-19 20:40:00,
2013-02-19 15:45:00,75.7,55.2,30.07,West,274,6.0,6.0,49,0.00,,SKC,0.00,VWS V14.01,2013-02-19 20:45:00,
2013-02-19 15:50:00,76.1,55.0,30.07,WSW,257,12.0,20.0,48,0.00,,SKC,0.00,VWS V14.01,2013-02-19 20:50:00,
2013-02-19 15:55:00,75.9,54.8,30.07,SW,229,8.0,15.0,48,0.00,,SKC,0.00,VWS V14.01,2013-02-19 20:55:00,
2013-02-19 16:00:00,75.4,54.4,30.07,WSW,251,5.0,16.0,48,0.00,,SKC,0.00,VWS V14.01,2013-02-19 21:00:00,
2013-02-19 16:05:00,75.6,55.1,30.06,WNW,282,12.0,14.0,49,0.00,,SKC,0.00,VWS V14.01,2013-02-19 21:05:00,
2013-02-19 16:10:00,76.0,54.9,30.07,WSW,249,8.0,14.0,48,0.00,,SKC,0.00,VWS V14.01,2013-02-19 21:10:00,
2013-02-19 16:15:00,76.2,53.9,30.06,WSW,246,11.0,17.0,46,0.00,,SKC,0.00,VWS V14.01,2013-02-19 21:15:00,
2013-02-19 16:20:00,75.5,53.9,30.06,SW,223,9.0,18.0,47,0.00,,SKC,0.00,VWS V14.01,2013-02-19 21:20:00,
2013-02-19 16:24:00,75.1,53.5,30.06,WSW,251,11.0,17.0,47,0.00,,SKC,0.00,VWS V14.01,2013-02-19 21:24:00,
2013-02-19 16:29:00,75.1,54.7,30.07,WSW,252,12.0,18.0,49,0.00,,SKC,0.00,VWS V14.01,2013-02-19 21:29:00,
2013-02-19 16:34:00,75.2,54.8,30.06,West,263,11.0,15.0,49,0.00,,SKC,0.00,VWS V14.01,2013-02-19 21:34:00,
2013-02-19 16:39:00,75.1,54.1,30.06,West,267,13.0,19.0,48,0.00,,SKC,0.00,VWS V14.01,2013-02-19 21:39:00,
2013-02-19 16:44:00,75.1,54.7,30.07,West,265,15.0,16.0,49,0.00,,SKC,0.00,VWS V14.01,2013-02-19 21:44:00,
2013-02-19 16:49:00,74.9,53.9,30.07,West,272,6.0,17.0,48,0.00,,SKC,0.00,VWS V14.01,2013-02-19 21:49:00,
2013-02-19 16:54:00,74.6,54.8,30.06,WSW,258,13.0,15.0,50,0.00,,SKC,0.00,VWS V14.01,2013-02-19 21:54:00,
2013-02-19 16:59:00,74.6,55.3,30.06,WNW,286,9.0,15.0,51,0.00,,SKC,0.00,VWS V14.01,2013-02-19 21:59:00,
2013-02-19 17:04:00,74.6,54.8,30.07,West,277,10.0,14.0,50,0.00,,SKC,0.00,VWS V14.01,2013-02-19 22:04:00,
2013-02-19 17:09:00,74.5,54.7,30.07,WSW,247,7.0,14.0,50,0.00,,SKC,0.00,VWS V14.01,2013-02-19 22:09:00,
2013-02-19 17:14:00,74.2,53.8,30.07,WSW,246,10.0,15.0,49,0.00,,SKC,0.00,VWS V14.01,2013-02-19 22:14:00,
2013-02-19 17:19:00,74.0,54.2,30.07,West,261,12.0,13.0,50,0.00,,SKC,0.00,VWS V14.01,2013-02-19 22:19:00,
2013-02-19 17:24:00,73.8,54.0,30.07,West,265,8.0,13.0,50,0.00,,SKC,0.00,VWS V14.01,2013-02-19 22:24:00,
2013-02-19 17:29:00,73.6,54.4,30.07,West,271,8.0,15.0,51,0.00,,SKC,0.00,VWS V14.01,2013-02-19 22:29:00,
2013-02-19 17:34:00,73.4,54.2,30.07,WSW,246,8.0,12.0,51,0.00,,SKC,0.00,VWS V14.01,2013-02-19 22:34:00,
2013-02-19 17:39:00,73.3,54.6,30.07,WNW,286,10.0,12.0,52,0.00,,SKC,0.00,VWS V14.01,2013-02-19 22:39:00,
2013-02-19 17:44:00,73.1,54.5,30.07,WSW,254,9.0,10.0,52,0.00,,SKC,0.00,VWS V14.01,2013-02-19 22:44:00,
2013-02-19 17:49:00,72.9,54.3,30.08,WSW,254,6.0,12.0,52,0.00,,SKC,0.00,VWS V14.01,2013-02-19 22:49:00,
2013-02-19 17:54:00,72.8,54.7,30.08,West,280,8.0,11.0,53,0.00,,SKC,0.00,VWS V14.01,2013-02-19 22:54:00,
2013-02-19 17:59:00,72.5,54.4,30.08,West,262,5.0,10.0,53,0.00,,SKC,0.00,VWS V14.01,2013-02-19 22:59:00,
2013-02-19 18:04:00,72.3,54.2,30.08,West,259,8.0,11.0,53,0.00,,SKC,0.00,VWS V14.01,2013-02-19 23:04:00,
2013-02-19 18:09:00,72.2,54.1,30.08,West,275,10.0,11.0,53,0.00,,SKC,0.00,VWS V14.01,2013-02-19 23:09:00,
2013-02-19 18:14:00,72.0,54.0,30.08,West,259,6.0,11.0,53,0.00,,SKC,0.00,VWS V14.01,2013-02-19 23:14:00,
2013-02-19 18:19:00,71.8,54.3,30.08,WSW,250,7.0,11.0,54,0.00,,SKC,0.00,VWS V14.01,2013-02-19 23:19:00,
2013-02-19 18:24:00,71.6,54.1,30.08,WSW,256,9.0,10.0,54,0.00,,SKC,0.00,VWS V14.01,2013-02-19 23:24:00,
2013-02-19 18:29:00,71.3,54.3,30.08,WSW,251,5.0,10.0,55,0.00,,SKC,0.00,VWS V14.01,2013-02-19 23:29:00,
2013-02-19 18:34:00,71.1,54.6,30.08,WSW,250,5.0,9.0,56,0.00,,SKC,0.00,VWS V14.01,2013-02-19 23:34:00,
2013-02-19 18:39:00,70.8,54.3,30.08,WSW,257,4.0,9.0,56,0.00,,SKC,0.00,VWS V14.01,2013-02-19 23:39:00,
2013-02-19 18:44:00,70.6,54.2,30.08,WSW,257,7.0,8.0,56,0.00,,SKC,0.00,VWS V14.01,2013-02-19 23:44:00,
2013-02-19 18:49:00,70.3,54.4,30.09,West,261,6.0,8.0,57,0.00,,SKC,0.00,VWS V14.01,2013-02-19 23:49:00,
2013-02-19 18:54:00,70.1,54.7,30.09,WSW,246,8.0,8.0,58,0.00,,SKC,0.00,VWS V14.01,2013-02-19 23:54:00,
2013-02-19 18:59:00,69.8,54.4,30.09,WSW,255,5.0,8.0,58,0.00,,SKC,0.00,VWS V14.01,2013-02-19 23:59:00,
2013-02-19 19:04:00,69.7,54.8,30.08,WSW,243,5.0,9.0,59,0.00,,SKC,0.00,VWS V14.01,2013-02-20 00:04:00,
2013-02-19 19:09:00,69.7,54.8,30.09,WSW,246,7.0,9.0,59,0.00,,SKC,0.00,VWS V14.01,2013-02-20 00:09:00,
2013-02-19 19:14:00,69.5,55.0,30.08,WSW,244,5.0,9.0,60,0.00,,SKC,0.00,VWS V14.01,2013-02-20 00:14:00,
2013-02-19 19:19:00,69.4,54.9,30.09,West,265,5.0,7.0,60,0.00,,SKC,0.00,VWS V14.01,2013-02-20 00:19:00,
2013-02-19 19:24:00,69.3,54.8,30.09,WSW,258,3.0,7.0,60,0.00,,SKC,0.00,VWS V14.01,2013-02-20 00:24:00,
2013-02-19 19:29:00,69.1,55.1,30.08,WSW,240,5.0,6.0,61,0.00,,SKC,0.00,VWS V14.01,2013-02-20 00:29:00,
2013-02-19 19:34:00,68.9,54.9,30.09,WSW,248,3.0,6.0,61,0.00,,SKC,0.00,VWS V14.01,2013-02-20 00:34:00,
2013-02-19 19:39:00,68.7,55.2,30.09,WSW,247,4.0,7.0,62,0.00,,SKC,0.00,VWS V14.01,2013-02-20 00:39:00,
2013-02-19 19:44:00,68.6,55.1,30.09,WSW,255,3.0,6.0,62,0.00,,SKC,0.00,VWS V14.01,2013-02-20 00:44:00,
2013-02-19 19:49:00,68.5,55.4,30.09,WSW,252,4.0,7.0,63,0.00,,SKC,0.00,VWS V14.01,2013-02-20 00:49:00,
2013-02-19 19:54:00,68.4,55.3,30.09,West,265,5.0,7.0,63,0.00,,SKC,0.00,VWS V14.01,2013-02-20 00:54:00,
2013-02-19 19:59:00,68.3,55.2,30.09,WSW,255,5.0,8.0,63,0.00,,SKC,0.00,VWS V14.01,2013-02-20 00:59:00,
2013-02-19 20:04:00,68.4,55.3,30.09,WSW,252,4.0,8.0,63,0.00,,SKC,0.00,VWS V14.01,2013-02-20 01:04:00,
2013-02-19 20:09:00,68.4,55.3,30.09,West,269,4.0,8.0,63,0.00,,SKC,0.00,VWS V14.01,2013-02-20 01:09:00,
2013-02-19 20:14:00,68.1,55.5,30.09,West,267,5.0,7.0,64,0.00,,SKC,0.00,VWS V14.01,2013-02-20 01:14:00,
2013-02-19 20:19:00,67.8,55.6,30.10,West,273,3.0,6.0,65,0.00,,SKC,0.00,VWS V14.01,2013-02-20 01:19:00,
2013-02-19 20:24:00,67.4,55.7,30.10,West,273,2.0,5.0,66,0.00,,SKC,0.00,VWS V14.01,2013-02-20 01:24:00,
2013-02-19 20:29:00,67.0,55.7,30.10,West,273,2.0,3.0,67,0.00,,SKC,0.00,VWS V14.01,2013-02-20 01:29:00,
2013-02-19 20:34:00,66.5,56.0,30.10,West,273,1.0,4.0,69,0.00,,SKC,0.00,VWS V14.01,2013-02-20 01:34:00,
2013-02-19 20:39:00,66.1,56.0,30.10,West,273,1.0,3.0,70,0.00,,SKC,0.00,VWS V14.01,2013-02-20 01:39:00,
2013-02-19 20:44:00,65.8,56.2,30.10,West,274,1.0,2.0,71,0.00,,SKC,0.00,VWS V14.01,2013-02-20 01:44:00,
2013-02-19 20:49:00,65.6,56.3,30.10,West,273,0.0,2.0,72,0.00,,SKC,0.00,VWS V14.01,2013-02-20 01:49:00,
2013-02-19 20:54:00,65.6,56.0,30.10,West,273,1.0,3.0,71,0.00,,SKC,0.00,VWS V14.01,2013-02-20 01:54:00,
2013-02-19 20:59:00,65.6,56.0,30.10,West,273,2.0,3.0,71,0.00,,SKC,0.00,VWS V14.01,2013-02-20 01:59:00,
2013-02-19 21:04:00,65.7,55.7,30.10,West,274,2.0,3.0,70,0.00,,SKC,0.00,VWS V14.01,2013-02-20 02:04:00,
2013-02-19 21:09:00,65.7,55.7,30.10,West,274,2.0,2.0,70,0.00,,SKC,0.00,VWS V14.01,2013-02-20 02:09:00,
2013-02-19 21:14:00,65.7,55.7,30.10,West,273,1.0,2.0,70,0.00,,SKC,0.00,VWS V14.01,2013-02-20 02:14:00,
2013-02-19 21:19:00,65.5,55.5,30.10,West,273,2.0,2.0,70,0.00,,SKC,0.00,VWS V14.01,2013-02-20 02:19:00,
2013-02-19 21:24:00,65.3,55.7,30.10,West,274,2.0,3.0,71,0.00,,SKC,0.00,VWS V14.01,2013-02-20 02:24:00,
2013-02-19 21:29:00,65.2,55.6,30.11,West,273,1.0,3.0,71,0.00,,SKC,0.00,VWS V14.01,2013-02-20 02:29:00,
2013-02-19 21:34:00,65.2,55.6,30.10,West,273,1.0,3.0,71,0.00,,SKC,0.00,VWS V14.01,2013-02-20 02:34:00,
2013-02-19 21:39:00,65.2,55.6,30.10,West,273,1.0,2.0,71,0.00,,SKC,0.00,VWS V14.01,2013-02-20 02:39:00,
2013-02-19 21:44:00,65.1,55.9,30.10,West,274,1.0,2.0,72,0.00,,SKC,0.00,VWS V14.01,2013-02-20 02:44:00,
2013-02-19 21:49:00,65.0,55.8,30.10,West,273,0.0,1.0,72,0.00,,SKC,0.00,VWS V14.01,2013-02-20 02:49:00,
2013-02-19 21:54:00,64.9,55.7,30.10,West,274,1.0,2.0,72,0.00,,SKC,0.00,VWS V14.01,2013-02-20 02:54:00,
2013-02-19 21:59:00,65.1,55.9,30.10,West,273,2.0,3.0,72,0.00,,SKC,0.00,VWS V14.01,2013-02-20 02:59:00,
2013-02-19 22:04:00,65.2,56.0,30.10,West,273,2.0,3.0,72,0.00,,SKC,0.00,VWS V14.01,2013-02-20 03:04:00,
2013-02-19 22:09:00,65.2,56.0,30.10,West,273,1.0,2.0,72,0.00,,SKC,0.00,VWS V14.01,2013-02-20 03:09:00,
2013-02-19 22:14:00,65.0,55.8,30.10,West,273,2.0,3.0,72,0.00,,SKC,0.00,VWS V14.01,2013-02-20 03:14:00,
2013-02-19 22:19:00,64.9,55.7,30.10,West,273,2.0,3.0,72,0.00,,SKC,0.00,VWS V14.01,2013-02-20 03:19:00,
2013-02-19 22:24:00,64.7,55.5,30.10,West,273,3.0,4.0,72,0.00,,SKC,0.00,VWS V14.01,2013-02-20 03:24:00,
2013-02-19 22:29:00,64.7,55.9,30.10,West,273,3.0,4.0,73,0.00,,SKC,0.00,VWS V14.01,2013-02-20 03:29:00,
2013-02-19 22:34:00,64.7,55.9,30.10,WSW,257,3.0,5.0,73,0.00,,SKC,0.00,VWS V14.01,2013-02-20 03:34:00,
2013-02-19 22:39:00,64.7,56.2,30.09,SW,216,4.0,5.0,74,0.00,,SKC,0.00,VWS V14.01,2013-02-20 03:39:00,
2013-02-19 22:44:00,64.6,56.5,30.09,SW,216,4.0,5.0,75,0.00,,SKC,0.00,VWS V14.01,2013-02-20 03:44:00,
2013-02-19 22:49:00,64.6,56.5,30.09,SW,217,4.0,6.0,75,0.00,,SKC,0.00,VWS V14.01,2013-02-20 03:49:00,
2013-02-19 22:54:00,64.5,56.4,30.09,SW,218,3.0,6.0,75,0.00,,SKC,0.00,VWS V14.01,2013-02-20 03:54:00,
2013-02-19 22:59:00,64.4,56.3,30.09,SSW,213,3.0,6.0,75,0.00,,SKC,0.00,VWS V14.01,2013-02-20 03:59:00,
2013-02-19 23:04:00,64.1,56.0,30.09,SW,214,3.0,6.0,75,0.00,,SKC,0.00,VWS V14.01,2013-02-20 04:04:00,
2013-02-19 23:09:00,63.9,55.8,30.09,SW,215,4.0,6.0,75,0.00,,SKC,0.00,VWS V14.01,2013-02-20 04:09:00,
2013-02-19 23:14:00,63.7,56.0,30.09,SW,215,4.0,6.0,76,0.00,,SKC,0.00,VWS V14.01,2013-02-20 04:14:00,
2013-02-19 23:19:00,63.6,56.3,30.09,SW,217,2.0,6.0,77,0.00,,SKC,0.00,VWS V14.01,2013-02-20 04:19:00,
2013-02-19 23:24:00,63.5,56.5,30.08,SW,219,3.0,6.0,78,0.00,,SKC,0.00,VWS V14.01,2013-02-20 04:24:00,
2013-02-19 23:29:00,63.3,56.7,30.08,SW,219,4.0,5.0,79,0.00,,SKC,0.00,VWS V14.01,2013-02-20 04:29:00,
2013-02-19 23:34:00,63.2,56.6,30.08,SW,217,4.0,5.0,79,0.00,,SKC,0.00,VWS V14.01,2013-02-20 04:34:00,
2013-02-19 23:39:00,63.1,56.8,30.08,SW,216,3.0,4.0,80,0.00,,SKC,0.00,VWS V14.01,2013-02-20 04:39:00,
2013-02-19 23:44:00,63.1,57.2,30.08,SW,216,3.0,4.0,81,0.00,,SKC,0.00,VWS V14.01,2013-02-20 04:44:00,
2013-02-19 23:49:00,63.2,57.6,30.08,SW,215,6.0,6.0,82,0.00,,SKC,0.00,VWS V14.01,2013-02-20 04:49:00,
2013-02-19 23:54:00,63.2,57.6,30.08,SW,215,4.0,5.0,82,0.00,,SKC,0.00,VWS V14.01,2013-02-20 04:54:00,
2013-02-19 23:59:00,63.1,57.9,30.08,SSW,213,4.0,6.0,83,0.00,,SKC,0.00,VWS V14.01,2013-02-20 04:59:00,